Inicio METAR Ruta Wind Satelite

Informe Meteorológico

Fecha: 2021/09/21 15:34:59 Local
2021.09.21 20:34 UTC


Operación:
SKVP 212000Z 08007KT 050V110 9999 FEW015 BKN200 32/23 Q1009 RMK A2982 =